Time;durP1;ratioP1;P1;durP2;ratioP2;P2;SDS_P1;SDS_P2;PMS_P1;PMS_P2;Temp;Humidity;BMP_temperature;BMP_pressure;BME280_temperature;BME280_humidity;BME280_pressure;Samples;Min_cycle;Max_cycle;Signal;HPM_P1;HPM_P2
2021/10/29 00:00:12;;;;;;;;;;;;;;;16.64;nan;97136.22;5093975;28;19931;-81
2021/10/29 00:02:59;;;;;;;;;;;;;;;16.65;nan;97136.97;5074433;28;19973;-81
2021/10/29 00:05:27;;;;;;;;;;;;;;;16.57;nan;97127.50;5072128;28;19973;-81
2021/10/29 00:07:54;;;;;;;;;;;;;;;16.68;nan;97127.50;5066727;28;19929;-81
2021/10/29 00:10:21;;;;;;;;;;;;;;;16.65;nan;97125.69;5075801;28;19931;-81
2021/10/29 00:12:49;;;;;;;;;;;;;;;16.75;nan;97124.94;5093684;28;20278;-81
2021/10/29 00:15:16;;;;;;;;;;;;;;;16.72;nan;97102.66;5093450;28;19938;-80
2021/10/29 00:17:43;;;;;;;;;;;;;;;16.42;nan;97104.38;5075299;28;19932;-80
2021/10/29 00:20:11;;;;;;;;;;;;;;;16.45;nan;97100.56;5097347;28;20298;-80
2021/10/29 00:22:38;;;;;;;;;;;;;;;16.53;nan;97093.91;5079700;28;19932;-81
2021/10/29 00:25:06;;;;;;;;;;;;;;;16.58;nan;97092.38;5079304;28;19930;-80
2021/10/29 00:27:33;;;;;;;;;;;;;;;16.48;nan;97088.28;5054436;28;20033;-81
2021/10/29 00:30:00;;;;;;;;;;;;;;;16.51;nan;97075.97;5057225;28;19930;-81
2021/10/29 00:32:29;;;;;;;;;;;;;;;16.49;nan;97072.88;5086393;28;20302;-80
2021/10/29 00:34:56;;;;;;;;;;;;;;;16.46;nan;97090.81;5086239;28;19931;-81
2021/10/29 00:37:23;;;;;;;;;;;;;;;16.33;nan;97090.53;5097189;28;20416;-81
2021/10/29 00:39:50;;;;;;;;;;;;;;;16.38;nan;97081.28;5097429;28;19924;-81
2021/10/29 00:42:17;;;;;;;;;;;;;;;16.36;nan;97086.69;5097121;28;19924;-81
2021/10/29 00:44:44;;;;;;;;;;;;;;;15.91;nan;97085.75;5075410;28;19928;-81
2021/10/29 00:47:12;;;;;;;;;;;;;;;15.63;nan;97082.81;5093063;28;19939;-81
2021/10/29 00:49:39;;;;;;;;;;;;;;;14.87;nan;97089.47;5075614;28;20375;-81
2021/10/29 00:52:06;;;;;;;;;;;;;;;15.53;nan;97100.41;5070343;28;19924;-81
2021/10/29 00:54:34;;;;;;;;;;;;;;;16.04;nan;97105.78;5097235;28;19930;-81
2021/10/29 00:57:01;;;;;;;;;;;;;;;16.27;nan;97119.44;5096862;28;19976;-81
2021/10/29 00:59:32;;;;;;;;;;;;;;;16.43;nan;97114.34;5075346;28;19975;-81
2021/10/29 01:01:59;;;;;;;;;;;;;;;16.16;nan;97115.84;5088480;28;19924;-81
2021/10/29 01:04:26;;;;;;;;;;;;;;;16.35;nan;97107.66;5075385;28;19930;-81
2021/10/29 01:06:53;;;;;;;;;;;;;;;16.56;nan;97109.03;5061518;28;19924;-81
2021/10/29 01:09:20;;;;;;;;;;;;;;;16.54;nan;97103.16;5071222;28;19924;-81
2021/10/29 01:11:48;;;;;;;;;;;;;;;16.58;nan;97092.38;5075171;28;19924;-81
2021/10/29 01:14:16;;;;;;;;;;;;;;;16.56;nan;97089.28;5087162;28;19928;-81
2021/10/29 01:16:43;;;;;;;;;;;;;;;16.45;nan;97073.13;5078110;28;19930;-81
2021/10/29 01:19:10;;;;;;;;;;;;;;;16.03;nan;97071.22;5096598;28;19924;-81
2021/10/29 01:21:38;;;;;;;;;;;;;;;16.53;nan;97068.53;5096685;28;19931;-81
2021/10/29 01:24:07;;;;;;;;;;;;;;;16.61;nan;97063.16;5096650;28;19935;-81
2021/10/29 01:26:35;;;;;;;;;;;;;;;16.67;nan;97066.75;5096422;28;19928;-81
2021/10/29 01:29:02;;;;;;;;;;;;;;;16.35;nan;97048.50;5096156;28;19928;-81
2021/10/29 01:31:29;;;;;;;;;;;;;;;16.55;nan;97039.84;5095241;28;20485;-81
2021/10/29 01:33:56;;;;;;;;;;;;;;;16.57;nan;97042.94;5078097;28;19924;-81
2021/10/29 01:36:24;;;;;;;;;;;;;;;16.61;nan;97030.13;5096404;28;19924;-81
2021/10/29 01:38:52;;;;;;;;;;;;;;;16.40;nan;97042.09;5096046;28;19924;-81
2021/10/29 01:41:45;;;;;;;;;;;;;;;16.52;nan;97050.09;5096093;28;19924;-81
2021/10/29 01:44:13;;;;;;;;;;;;;;;16.23;nan;97042.84;5095785;28;20307;-81
2021/10/29 01:46:41;;;;;;;;;;;;;;;16.44;nan;97034.19;5078297;28;19928;-81
2021/10/29 01:49:08;;;;;;;;;;;;;;;16.50;nan;97021.66;5095600;28;19924;-81
2021/10/29 01:51:35;;;;;;;;;;;;;;;16.68;nan;96992.94;5078043;28;19928;-81
2021/10/29 01:54:03;;;;;;;;;;;;;;;16.86;nan;96989.59;5077799;28;19947;-81
2021/10/29 01:56:30;;;;;;;;;;;;;;;15.69;nan;96992.78;5095665;28;19947;-81
2021/10/29 01:58:57;;;;;;;;;;;;;;;15.19;nan;97003.78;5095541;28;19924;-81
2021/10/29 02:01:24;;;;;;;;;;;;;;;16.00;nan;96993.38;5095713;28;19924;-81
2021/10/29 02:03:52;;;;;;;;;;;;;;;16.25;nan;96988.81;5057222;28;19924;-81
2021/10/29 02:06:19;;;;;;;;;;;;;;;16.42;nan;96980.38;5090872;28;19924;-81
2021/10/29 02:08:47;;;;;;;;;;;;;;;16.53;nan;96978.34;5095602;28;19928;-81
2021/10/29 02:11:15;;;;;;;;;;;;;;;16.61;nan;96972.97;5077445;28;19935;-81
2021/10/29 02:13:42;;;;;;;;;;;;;;;16.65;nan;96982.69;5095326;28;19924;-81
2021/10/29 02:16:10;;;;;;;;;;;;;;;16.55;nan;96972.97;5073768;28;19948;-81
2021/10/29 02:18:37;;;;;;;;;;;;;;;16.77;nan;96960.88;5092855;28;19928;-81
2021/10/29 02:21:04;;;;;;;;;;;;;;;16.85;nan;96964.72;5077381;28;19931;-80
2021/10/29 02:23:33;;;;;;;;;;;;;;;16.81;nan;96970.63;5077111;28;19924;-81
2021/10/29 02:26:00;;;;;;;;;;;;;;;16.77;nan;96960.88;5094988;28;19924;-81
2021/10/29 02:28:27;;;;;;;;;;;;;;;16.54;nan;96962.22;5077274;28;19924;-81
2021/10/29 02:30:55;;;;;;;;;;;;;;;16.11;nan;96970.09;5095139;28;19931;-81
2021/10/29 02:33:23;;;;;;;;;;;;;;;15.72;nan;96972.06;5094992;28;19931;-81
2021/10/29 02:35:50;;;;;;;;;;;;;;;16.20;nan;96953.72;5095032;28;19924;-81
2021/10/29 02:38:18;;;;;;;;;;;;;;;16.49;nan;96938.38;5077033;28;19953;-81
2021/10/29 02:40:45;;;;;;;;;;;;;;;16.58;nan;96935.28;5094378;28;19924;-81
2021/10/29 02:43:12;;;;;;;;;;;;;;;15.94;nan;96944.72;5094854;28;20359;-81
2021/10/29 02:45:41;;;;;;;;;;;;;;;16.24;nan;96951.41;5080566;28;19924;-81
2021/10/29 02:48:08;;;;;;;;;;;;;;;15.97;nan;96948.56;5075153;28;19934;-81
2021/10/29 02:50:36;;;;;;;;;;;;;;;15.66;nan;96952.31;5102945;28;20290;-81
2021/10/29 02:53:05;;;;;;;;;;;;;;;15.44;nan;96938.19;5076526;28;20388;-80
2021/10/29 02:55:32;;;;;;;;;;;;;;;15.48;nan;96952.78;5094490;28;19924;-80
2021/10/29 02:57:59;;;;;;;;;;;;;;;16.21;nan;96929.91;5080411;28;20300;-81
2021/10/29 03:00:26;;;;;;;;;;;;;;;16.36;nan;96923.25;5094312;28;19924;-81
2021/10/29 03:02:56;;;;;;;;;;;;;;;16.47;nan;96923.25;5094451;28;19985;-81
2021/10/29 03:05:23;;;;;;;;;;;;;;;15.76;nan;96925.50;5072843;28;20319;-81
2021/10/29 03:07:50;;;;;;;;;;;;;;;16.12;nan;96915.28;5091451;28;19938;-81
2021/10/29 03:10:17;;;;;;;;;;;;;;;15.98;nan;96913.47;5094130;28;19924;-81
2021/10/29 03:12:44;;;;;;;;;;;;;;;15.79;nan;96915.25;5094255;28;19924;-81
2021/10/29 03:15:12;;;;;;;;;;;;;;;16.63;nan;96897.09;5072938;28;19930;-81
2021/10/29 03:17:39;;;;;;;;;;;;;;;15.84;nan;96881.47;5070142;28;19924;-81
2021/10/29 03:20:07;;;;;;;;;;;;;;;16.47;nan;96883.78;5072747;28;20283;-81
2021/10/29 03:22:35;;;;;;;;;;;;;;;16.62;nan;96878.63;5086549;28;19930;-81
2021/10/29 03:25:03;;;;;;;;;;;;;;;16.49;nan;96867.13;5072380;28;19928;-81
2021/10/29 03:27:31;;;;;;;;;;;;;;;16.23;nan;96868.19;5073932;28;19928;-81
2021/10/29 03:29:58;;;;;;;;;;;;;;;16.65;nan;96849.41;5075392;28;20388;-81
2021/10/29 03:32:25;;;;;;;;;;;;;;;16.58;nan;96849.94;5094133;28;19924;-81
2021/10/29 03:34:53;;;;;;;;;;;;;;;16.47;nan;96833.06;5056968;28;19946;-80
2021/10/29 03:40:11;;;;;;;;;;;;;;;16.89;nan;96829.88;5056333;28;19943;-81
2021/10/29 03:42:46;;;;;;;;;;;;;;;16.68;nan;96820.19;5093994;28;19924;-81
2021/10/29 03:45:15;;;;;;;;;;;;;;;15.78;nan;96824.38;5074540;28;20432;-81
2021/10/29 03:47:53;;;;;;;;;;;;;;;16.27;nan;96805.16;5075981;28;19924;-80
2021/10/29 03:50:26;;;;;;;;;;;;;;;16.53;nan;96802.81;5093578;28;20383;-81
2021/10/29 03:53:02;;;;;;;;;;;;;;;16.70;nan;96792.25;5075225;28;19924;-81
2021/10/29 03:55:35;;;;;;;;;;;;;;;16.63;nan;96773.81;5075767;28;20540;-80
2021/10/29 03:58:02;;;;;;;;;;;;;;;16.24;nan;96798.50;5059035;28;19930;-80
2021/10/29 04:00:30;;;;;;;;;;;;;;;16.41;nan;96779.50;5093599;28;19924;-80
2021/10/29 04:03:02;;;;;;;;;;;;;;;16.17;nan;96791.34;5093073;28;20706;-80
2021/10/29 04:05:30;;;;;;;;;;;;;;;15.60;nan;96765.78;5072266;28;19954;-80
2021/10/29 04:07:57;;;;;;;;;;;;;;;15.95;nan;96782.13;5072228;28;20398;-81
2021/10/29 04:10:26;;;;;;;;;;;;;;;16.31;nan;96771.84;5086313;28;19924;-80
2021/10/29 04:12:54;;;;;;;;;;;;;;;15.62;nan;96760.41;5076019;28;19924;-80
2021/10/29 04:15:22;;;;;;;;;;;;;;;15.47;nan;96768.34;5093560;28;20483;-80
2021/10/29 04:17:50;;;;;;;;;;;;;;;15.65;nan;96758.63;5111868;28;19924;-80
2021/10/29 04:20:18;;;;;;;;;;;;;;;16.09;nan;96761.38;5103774;28;19924;-81
2021/10/29 04:22:45;;;;;;;;;;;;;;;15.91;nan;96754.25;5093337;28;19924;-80
2021/10/29 04:25:12;;;;;;;;;;;;;;;15.49;nan;96763.00;5075622;28;19928;-80
2021/10/29 04:27:55;;;;;;;;;;;;;;;15.80;nan;96740.19;5093261;28;20364;-81
2021/10/29 04:30:24;;;;;;;;;;;;;;;15.94;nan;96736.34;5093662;28;19928;-80
2021/10/29 04:32:51;;;;;;;;;;;;;;;16.25;nan;96761.34;5073262;28;19958;-80
2021/10/29 04:35:18;;;;;;;;;;;;;;;15.87;nan;96775.50;5075564;28;19930;-80
2021/10/29 04:37:45;;;;;;;;;;;;;;;15.51;nan;96745.59;5093473;28;19924;-80
2021/10/29 04:40:13;;;;;;;;;;;;;;;15.50;nan;96722.31;5061436;28;19924;-80
2021/10/29 04:42:41;;;;;;;;;;;;;;;15.10;nan;96731.19;5080966;28;20372;-80
2021/10/29 04:45:08;;;;;;;;;;;;;;;15.86;nan;96718.44;5106182;28;19924;-80
2021/10/29 04:47:36;;;;;;;;;;;;;;;15.36;nan;96714.06;5074982;28;19924;-80
2021/10/29 04:50:04;;;;;;;;;;;;;;;15.53;nan;96728.94;5107715;28;19984;-80
2021/10/29 04:52:31;;;;;;;;;;;;;;;15.10;nan;96694.63;5093107;28;20303;-80
2021/10/29 04:54:58;;;;;;;;;;;;;;;15.04;nan;96715.59;5093232;28;19924;-80
2021/10/29 04:57:25;;;;;;;;;;;;;;;15.44;nan;96741.22;5078793;28;19969;-80
2021/10/29 04:59:52;;;;;;;;;;;;;;;15.71;nan;96723.56;5065371;28;19932;-80
2021/10/29 05:02:20;;;;;;;;;;;;;;;15.46;nan;96702.09;5075015;28;19932;-80
2021/10/29 05:04:47;;;;;;;;;;;;;;;15.56;nan;96689.28;5076754;28;19928;-80
2021/10/29 05:07:14;;;;;;;;;;;;;;;15.71;nan;96717.16;5096494;28;20371;-80
2021/10/29 05:09:41;;;;;;;;;;;;;;;15.92;nan;96667.72;5058666;28;19931;-80
2021/10/29 05:12:08;;;;;;;;;;;;;;;15.66;nan;96695.44;5071873;28;19931;-80
2021/10/29 05:14:36;;;;;;;;;;;;;;;15.60;nan;96672.16;5078684;28;19928;-80
2021/10/29 05:17:03;;;;;;;;;;;;;;;15.30;nan;96669.06;5075174;28;19931;-80
2021/10/29 05:19:30;;;;;;;;;;;;;;;14.89;nan;96682.06;5094205;28;19946;-80
2021/10/29 05:21:58;;;;;;;;;;;;;;;15.87;nan;96663.63;5096582;28;19928;-80
2021/10/29 05:24:25;;;;;;;;;;;;;;;15.49;nan;96672.94;5077324;28;19966;-80
2021/10/29 05:26:52;;;;;;;;;;;;;;;15.73;nan;96672.38;5078661;28;19930;-80
2021/10/29 05:29:20;;;;;;;;;;;;;;;14.99;nan;96671.38;5078702;28;19924;-80
2021/10/29 05:31:47;;;;;;;;;;;;;;;15.43;nan;96683.44;5096534;28;19928;-80
2021/10/29 05:34:14;;;;;;;;;;;;;;;15.86;nan;96687.47;5096393;28;19928;-80
2021/10/29 05:36:42;;;;;;;;;;;;;;;15.71;nan;96652.41;5096005;28;19931;-80
2021/10/29 05:39:09;;;;;;;;;;;;;;;15.72;nan;96651.16;5096467;28;19924;-80
2021/10/29 05:41:37;;;;;;;;;;;;;;;15.12;nan;96585.22;5074704;28;19973;-80
2021/10/29 05:44:05;;;;;;;;;;;;;;;15.23;nan;96627.41;5085965;28;19924;-80
2021/10/29 05:46:32;;;;;;;;;;;;;;;15.27;nan;96636.34;5078296;28;19924;-80
2021/10/29 05:49:02;;;;;;;;;;;;;;;14.86;nan;96632.50;5074691;28;19924;-80
2021/10/29 05:51:31;;;;;;;;;;;;;;;14.43;nan;96612.25;5073208;28;19931;-80
2021/10/29 05:56:45;;;;;;;;;;;;;;;14.84;nan;96629.44;5109236;28;19923;-80
2021/10/29 05:59:13;;;;;;;;;;;;;;;15.11;nan;96662.44;5080175;28;20452;-80
2021/10/29 06:01:42;;;;;;;;;;;;;;;14.20;nan;96647.16;5096471;28;19973;-79
2021/10/29 06:04:10;;;;;;;;;;;;;;;14.39;nan;96627.81;5095863;28;19924;-80
2021/10/29 06:06:37;;;;;;;;;;;;;;;14.32;nan;96606.63;5096051;28;19973;-80
2021/10/29 06:09:04;;;;;;;;;;;;;;;14.12;nan;96637.66;5095635;28;19969;-80
2021/10/29 06:11:31;;;;;;;;;;;;;;;14.34;nan;96608.94;5087895;28;20368;-80
2021/10/29 06:13:58;;;;;;;;;;;;;;;14.72;nan;96653.19;5074409;28;19925;-80
2021/10/29 06:16:26;;;;;;;;;;;;;;;14.19;nan;96613.97;5060419;28;20261;-80
2021/10/29 06:18:56;;;;;;;;;;;;;;;14.20;nan;96633.09;5057483;28;19930;-80
2021/10/29 06:24:13;;;;;;;;;;;;;;;14.32;nan;96617.09;5073980;28;19931;-80
2021/10/29 06:26:48;;;;;;;;;;;;;;;14.73;nan;96618.19;5070838;28;19924;-80
2021/10/29 06:29:16;;;;;;;;;;;;;;;14.74;nan;96625.34;5101632;28;19924;-80
2021/10/29 06:31:44;;;;;;;;;;;;;;;15.15;nan;96614.34;5095407;28;19924;-80
2021/10/29 06:34:36;;;;;;;;;;;;;;;15.14;nan;96599.53;5095277;28;19924;-80
2021/10/29 06:37:04;;;;;;;;;;;;;;;15.07;nan;96622.53;5074940;28;19928;-80
2021/10/29 06:39:32;;;;;;;;;;;;;;;15.35;nan;96612.03;5089408;28;19924;-80
2021/10/29 06:42:04;;;;;;;;;;;;;;;15.44;nan;96631.50;5077218;28;19953;-80
2021/10/29 06:52:32;;;;;;;;;;;;;;;14.46;nan;96593.63;5081417;28;20364;-79
2021/10/29 07:00:56;;;;;;;;;;;;;;;14.86;nan;96604.38;5093617;28;19931;-80
2021/10/29 07:11:59;;;;;;;;;;;;;;;14.60;nan;96558.88;5090186;28;19928;-79
2021/10/29 07:42:05;;;;;;;;;;;;;;;14.63;nan;96585.22;5059477;28;20031;-80
2021/10/29 07:44:33;;;;;;;;;;;;;;;14.77;nan;96564.53;5067031;28;20344;-79
2021/10/29 07:47:00;;;;;;;;;;;;;;;14.87;nan;96555.34;5076631;28;19957;-79
2021/10/29 07:49:29;;;;;;;;;;;;;;;14.66;nan;96548.41;5085178;28;19939;-79
2021/10/29 07:51:57;;;;;;;;;;;;;;;14.53;nan;96550.97;5087862;28;19931;-79
2021/10/29 07:54:25;;;;;;;;;;;;;;;14.48;nan;96532.84;5070739;28;19928;-79
2021/10/29 07:56:52;;;;;;;;;;;;;;;14.43;nan;96511.13;5070611;28;19931;-79
2021/10/29 07:59:21;;;;;;;;;;;;;;;14.69;nan;96527.75;5088749;28;19953;-80
2021/10/29 08:01:52;;;;;;;;;;;;;;;14.69;nan;96555.06;5090633;28;20345;-80
2021/10/29 08:04:21;;;;;;;;;;;;;;;14.88;nan;96533.59;5073673;28;20405;-81
2021/10/29 08:06:49;;;;;;;;;;;;;;;14.33;nan;96515.47;5082355;28;19934;-81
2021/10/29 08:09:17;;;;;;;;;;;;;;;14.53;nan;96556.59;5070660;28;20389;-81
2021/10/29 08:11:44;;;;;;;;;;;;;;;14.66;nan;96559.66;5099971;28;19931;-81
2021/10/29 08:14:12;;;;;;;;;;;;;;;14.58;nan;96550.22;5090315;28;19924;-80
2021/10/29 08:16:40;;;;;;;;;;;;;;;14.65;nan;96499.13;5091030;28;19924;-82
2021/10/29 08:19:07;;;;;;;;;;;;;;;14.23;nan;96539.47;5065152;28;19924;-81
2021/10/29 08:21:35;;;;;;;;;;;;;;;14.68;nan;96548.69;5110701;28;19946;-81
2021/10/29 08:24:03;;;;;;;;;;;;;;;14.67;nan;96521.88;5074462;28;19924;-81
2021/10/29 08:26:32;;;;;;;;;;;;;;;14.80;nan;96533.34;5060672;28;20594;-82
2021/10/29 08:29:00;;;;;;;;;;;;;;;15.65;nan;96539.84;5064495;28;19931;-82
2021/10/29 08:31:28;;;;;;;;;;;;;;;15.56;nan;96540.16;5063685;28;19925;-82
2021/10/29 08:33:56;;;;;;;;;;;;;;;15.48;nan;96541.97;5081577;28;19928;-82
2021/10/29 08:36:23;;;;;;;;;;;;;;;15.12;nan;96514.91;5082722;28;19953;-82
2021/10/29 08:38:51;;;;;;;;;;;;;;;15.43;nan;96516.66;5056646;28;19925;-82
2021/10/29 08:41:27;;;;;;;;;;;;;;;15.36;nan;96534.81;5062608;28;20364;-82
2021/10/29 08:43:55;;;;;;;;;;;;;;;15.17;nan;96527.44;5086883;28;19928;-82
2021/10/29 08:46:25;;;;;;;;;;;;;;;14.71;nan;96541.28;5082365;28;20303;-82
2021/10/29 08:48:52;;;;;;;;;;;;;;;14.89;nan;96558.38;5056394;28;19927;-83
2021/10/29 08:51:20;;;;;;;;;;;;;;;15.30;nan;96545.31;5049934;28;19924;-82
2021/10/29 08:53:47;;;;;;;;;;;;;;;15.10;nan;96517.47;5059481;28;20413;-83
2021/10/29 08:56:15;;;;;;;;;;;;;;;15.05;nan;96520.28;5085894;28;19935;-82
2021/10/29 08:59:01;;;;;;;;;;;;;;;15.86;nan;96496.00;5083994;28;19925;-83
2021/10/29 09:01:44;;;;;;;;;;;;;;;15.62;nan;96507.13;5055677;28;19932;-82
2021/10/29 09:04:12;;;;;;;;;;;;;;;16.05;nan;96488.47;5087022;28;20601;-82
2021/10/29 09:06:56;;;;;;;;;;;;;;;15.38;nan;96480.88;5089797;28;19925;-82
2021/10/29 09:10:26;;;;;;;;;;;;;;;14.59;nan;96444.97;5061505;28;20347;-82
2021/10/29 09:32:21;;;;;;;;;;;;;;;14.86;nan;96430.09;5067762;28;19924;-81
2021/10/29 09:35:10;;;;;;;;;;;;;;;15.69;nan;96447.47;5068953;28;20597;-83
2021/10/29 09:37:54;;;;;;;;;;;;;;;15.67;nan;96413.47;5058036;28;20295;-79
2021/10/29 09:40:40;;;;;;;;;;;;;;;15.01;nan;96401.72;5095604;28;19973;-80
2021/10/29 09:43:14;;;;;;;;;;;;;;;15.54;nan;96376.69;5075757;28;19925;-81
2021/10/29 09:46:07;;;;;;;;;;;;;;;15.25;nan;96371.69;5058763;28;19924;-84
2021/10/29 09:48:51;;;;;;;;;;;;;;;15.90;nan;96397.94;5090019;28;19924;-85
2021/10/29 09:51:22;;;;;;;;;;;;;;;15.82;nan;96407.47;5090420;28;20433;-86
2021/10/29 09:54:03;;;;;;;;;;;;;;;16.19;nan;96408.50;5075105;28;19924;-84
2021/10/29 09:58:59;;;;;;;;;;;;;;;16.11;nan;96395.50;5057446;28;20299;-83
2021/10/29 10:01:31;;;;;;;;;;;;;;;15.55;nan;96388.72;5075511;28;19977;-84
2021/10/29 10:04:02;;;;;;;;;;;;;;;15.47;nan;96388.50;5040667;28;19925;-84
2021/10/29 10:06:40;;;;;;;;;;;;;;;15.74;nan;96390.38;5075109;28;19981;-84
2021/10/29 10:09:09;;;;;;;;;;;;;;;15.78;nan;96379.59;5074871;28;19931;-84
2021/10/29 10:11:38;;;;;;;;;;;;;;;15.65;nan;96387.88;5040451;28;19924;-82
2021/10/29 10:14:05;;;;;;;;;;;;;;;15.95;nan;96427.34;5022460;28;19954;-85
2021/10/29 10:16:33;;;;;;;;;;;;;;;15.66;nan;96383.03;5039083;28;19932;-84
2021/10/29 10:19:01;;;;;;;;;;;;;;;15.43;nan;96387.25;5052792;28;19925;-84
2021/10/29 10:21:31;;;;;;;;;;;;;;;15.32;nan;96393.66;5056452;28;20353;-84
2021/10/29 10:24:01;;;;;;;;;;;;;;;15.98;nan;96375.63;5046910;28;19924;-84
2021/10/29 10:48:37;;;;;;;;;;;;;;;15.10;nan;96337.50;5073910;28;20273;-83
2021/10/29 10:54:01;;;;;;;;;;;;;;;14.98;nan;96340.91;5060363;28;20318;-83
2021/10/29 10:56:59;;;;;;;;;;;;;;;15.18;nan;96352.56;5057218;28;19931;-84
2021/10/29 10:59:46;;;;;;;;;;;;;;;15.30;nan;96387.78;5083404;28;19938;-83
2021/10/29 11:10:17;;;;;;;;;;;;;;;15.07;nan;96396.84;5098129;28;20383;-83
2021/10/29 11:12:45;;;;;;;;;;;;;;;15.45;nan;96368.56;5084858;28;19932;-83
2021/10/29 11:15:12;;;;;;;;;;;;;;;15.76;nan;96373.75;5080875;28;19928;-83
2021/10/29 11:17:46;;;;;;;;;;;;;;;15.56;nan;96385.38;5090135;28;19969;-84
2021/10/29 11:20:34;;;;;;;;;;;;;;;15.86;nan;96365.72;5053665;28;19928;-84
2021/10/29 11:23:06;;;;;;;;;;;;;;;15.32;nan;96404.91;5076309;28;19945;-84
2021/10/29 11:25:47;;;;;;;;;;;;;;;15.37;nan;96409.00;5067454;28;19946;-84
2021/10/29 11:28:16;;;;;;;;;;;;;;;15.43;nan;96404.91;5107914;28;20371;-83
2021/10/29 11:30:45;;;;;;;;;;;;;;;15.67;nan;96410.66;5086801;28;19931;-83
2021/10/29 11:33:14;;;;;;;;;;;;;;;15.21;nan;96404.94;5065699;28;19925;-83
2021/10/29 11:35:52;;;;;;;;;;;;;;;15.40;nan;96383.44;5062501;28;20276;-81
2021/10/29 11:38:20;;;;;;;;;;;;;;;15.64;nan;96389.19;5083522;28;20314;-80
2021/10/29 11:40:48;;;;;;;;;;;;;;;15.72;nan;96409.09;5082326;28;19928;-82
2021/10/29 11:43:23;;;;;;;;;;;;;;;15.61;nan;96409.91;5097029;28;19924;-81
2021/10/29 11:45:50;;;;;;;;;;;;;;;15.65;nan;96409.63;5076257;28;19928;-81
2021/10/29 11:48:18;;;;;;;;;;;;;;;13.50;nan;96477.97;5091761;28;19924;-81
2021/10/29 11:50:45;;;;;;;;;;;;;;;12.39;nan;96479.34;5072827;28;19925;-79
2021/10/29 11:53:34;;;;;;;;;;;;;;;12.17;nan;96484.75;5089577;28;19969;-79
2021/10/29 11:56:05;;;;;;;;;;;;;;;12.31;nan;96483.84;5085040;28;19954;-79
2021/10/29 12:09:27;;;;;;;;;;;;;;;12.51;nan;96508.97;5092626;28;20399;-79
2021/10/29 12:12:00;;;;;;;;;;;;;;;12.59;nan;96518.44;5092765;28;19931;-79
2021/10/29 12:14:29;;;;;;;;;;;;;;;12.59;nan;96537.28;5070396;28;19931;-80
2021/10/29 12:17:02;;;;;;;;;;;;;;;12.82;nan;96521.41;5097724;28;19924;-80
2021/10/29 12:19:30;;;;;;;;;;;;;;;12.64;nan;96528.16;5103658;28;19928;-80
2021/10/29 12:22:05;;;;;;;;;;;;;;;12.89;nan;96548.97;5097377;28;19924;-79
2021/10/29 12:24:34;;;;;;;;;;;;;;;12.97;nan;96552.84;5088275;28;19938;-80
2021/10/29 12:27:07;;;;;;;;;;;;;;;12.70;nan;96568.19;5079679;28;20375;-80
2021/10/29 12:29:35;;;;;;;;;;;;;;;12.87;nan;96568.31;5093557;28;20417;-79
2021/10/29 12:32:38;;;;;;;;;;;;;;;12.85;nan;96582.06;5097410;28;20056;-79
2021/10/29 12:36:44;;;;;;;;;;;;;;;12.90;nan;96581.34;5074086;28;19931;-79
2021/10/29 12:37:57;;;;;;;;;;;;;;;12.81;nan;96598.31;5072562;28;19925;-79
2021/10/29 12:52:15;;;;;;;;;;;;;;;12.38;nan;96608.63;5090727;28;19930;-79
2021/10/29 13:03:10;;;;;;;;;;;;;;;12.50;nan;96641.84;5094580;28;19951;-81
2021/10/29 13:05:38;;;;;;;;;;;;;;;12.90;nan;96623.38;5093589;28;19969;-80
2021/10/29 13:08:18;;;;;;;;;;;;;;;13.14;nan;96626.66;5084350;28;20363;-81
2021/10/29 13:10:46;;;;;;;;;;;;;;;13.01;nan;96634.72;5096787;28;20376;-78
2021/10/29 13:13:19;;;;;;;;;;;;;;;13.29;nan;96641.28;5075107;28;19925;-77
2021/10/29 13:15:47;;;;;;;;;;;;;;;13.18;nan;96636.34;5091110;28;19931;-79
2021/10/29 13:18:21;;;;;;;;;;;;;;;12.50;nan;96650.25;5079130;28;19924;-85
2021/10/29 13:34:49;;;;;;;;;;;;;;;13.20;nan;96709.53;5078938;28;19924;-84
2021/10/29 13:51:33;;;;;;;;;;;;;;;13.24;nan;96724.09;5056923;28;20413;-84
2021/10/29 14:29:30;;;;;;;;;;;;;;;13.17;nan;96749.00;5086895;28;20375;-84
2021/10/29 14:32:03;;;;;;;;;;;;;;;13.55;nan;96748.56;5067709;28;19928;-83
2021/10/29 14:34:41;;;;;;;;;;;;;;;13.24;nan;96757.72;5051960;28;19924;-83
2021/10/29 14:37:26;;;;;;;;;;;;;;;13.50;nan;96757.69;5066805;28;20387;-83
2021/10/29 14:42:43;;;;;;;;;;;;;;;13.84;nan;96751.09;5063998;28;19925;-83
2021/10/29 14:45:21;;;;;;;;;;;;;;;13.71;nan;96754.31;5107312;28;19928;-83
2021/10/29 14:50:43;;;;;;;;;;;;;;;13.93;nan;96760.06;5075694;28;19931;-83
2021/10/29 15:00:24;;;;;;;;;;;;;;;13.81;nan;96763.31;5071976;28;20299;-83
2021/10/29 15:07:32;;;;;;;;;;;;;;;13.70;nan;96782.84;4989074;28;20357;-83
2021/10/29 15:18:24;;;;;;;;;;;;;;;13.99;nan;96816.25;4994686;28;19929;-83
2021/10/29 15:24:44;;;;;;;;;;;;;;;13.75;nan;96827.78;4965067;28;20328;-84
2021/10/29 15:26:51;;;;;;;;;;;;;;;13.84;nan;96818.44;4991059;28;19995;-84
2021/10/29 15:29:29;;;;;;;;;;;;;;;13.84;nan;96838.84;4987953;28;20324;-84
2021/10/29 15:43:19;;;;;;;;;;;;;;;14.03;nan;96864.50;5087242;28;19924;-83
2021/10/29 15:45:48;;;;;;;;;;;;;;;13.99;nan;96863.97;5074857;28;20406;-84
2021/10/29 15:50:42;;;;;;;;;;;;;;;13.79;nan;96872.47;5070781;28;19928;-83
2021/10/29 15:53:14;;;;;;;;;;;;;;;14.00;nan;96876.72;5069360;28;19931;-83
2021/10/29 15:55:50;;;;;;;;;;;;;;;13.94;nan;96875.91;5071288;28;20265;-83
2021/10/29 16:04:00;;;;;;;;;;;;;;;13.53;nan;96888.53;5092035;28;19928;-83
2021/10/29 16:17:33;;;;;;;;;;;;;;;13.35;nan;96900.09;5069522;28;19924;-83
2021/10/29 16:20:00;;;;;;;;;;;;;;;13.42;nan;96899.69;5074165;28;19946;-84
2021/10/29 16:22:32;;;;;;;;;;;;;;;13.35;nan;96906.47;5057101;28;19953;-84
2021/10/29 16:28:14;;;;;;;;;;;;;;;13.20;nan;96922.63;5092141;28;19924;-83
2021/10/29 16:30:26;;;;;;;;;;;;;;;13.37;nan;96920.00;5052374;28;20383;-83
2021/10/29 16:35:28;;;;;;;;;;;;;;;13.49;nan;96927.28;5074503;28;19928;-83
2021/10/29 16:37:56;;;;;;;;;;;;;;;12.99;nan;96928.69;5088311;28;20379;-83
2021/10/29 16:40:23;;;;;;;;;;;;;;;13.02;nan;96934.13;5057727;28;19932;-83
2021/10/29 16:42:50;;;;;;;;;;;;;;;13.24;nan;96944.84;5054246;28;19931;-83
2021/10/29 16:45:19;;;;;;;;;;;;;;;13.19;nan;96948.34;5097742;28;20473;-83
2021/10/29 16:47:46;;;;;;;;;;;;;;;13.01;nan;96943.78;5094326;28;19953;-83
2021/10/29 16:50:14;;;;;;;;;;;;;;;13.00;nan;96953.44;5059364;28;19924;-83
2021/10/29 16:52:42;;;;;;;;;;;;;;;13.02;nan;96950.94;5054332;28;20292;-83
2021/10/29 16:55:10;;;;;;;;;;;;;;;12.96;nan;96952.09;5071358;28;19932;-83
2021/10/29 16:57:38;;;;;;;;;;;;;;;12.67;nan;96948.16;5091613;28;19930;-83
2021/10/29 17:00:07;;;;;;;;;;;;;;;12.88;nan;96950.97;5037865;28;19998;-83
2021/10/29 17:02:34;;;;;;;;;;;;;;;12.97;nan;96962.03;5055649;28;20338;-83
2021/10/29 17:05:01;;;;;;;;;;;;;;;12.77;nan;96963.56;5031351;28;19935;-83
2021/10/29 17:07:30;;;;;;;;;;;;;;;12.68;nan;96962.91;5056979;28;19931;-83
2021/10/29 17:10:06;;;;;;;;;;;;;;;12.56;nan;96970.38;5074211;28;20292;-83
2021/10/29 17:12:38;;;;;;;;;;;;;;;12.45;nan;96975.03;5076431;28;19924;-83
2021/10/29 17:15:07;;;;;;;;;;;;;;;12.63;nan;96975.56;5077727;28;19924;-83
2021/10/29 17:17:36;;;;;;;;;;;;;;;12.43;nan;96975.50;5044204;28;19969;-83
2021/10/29 17:20:04;;;;;;;;;;;;;;;12.55;nan;96979.28;5072858;28;19932;-83
2021/10/29 17:22:32;;;;;;;;;;;;;;;12.62;nan;96990.06;5095423;28;19924;-83
2021/10/29 17:24:59;;;;;;;;;;;;;;;12.74;nan;96998.16;5077257;28;19924;-83
2021/10/29 17:27:28;;;;;;;;;;;;;;;12.62;nan;97004.84;5057847;28;20376;-83
2021/10/29 17:29:55;;;;;;;;;;;;;;;12.48;nan;97005.66;5039839;28;19925;-83
2021/10/29 17:32:22;;;;;;;;;;;;;;;12.32;nan;97000.56;5087066;28;19924;-83
2021/10/29 17:34:52;;;;;;;;;;;;;;;12.39;nan;97016.97;5095094;28;20344;-83
2021/10/29 17:37:19;;;;;;;;;;;;;;;12.44;nan;97021.09;5060750;28;20404;-83
2021/10/29 17:39:50;;;;;;;;;;;;;;;12.70;nan;97022.81;5061175;28;19932;-83
2021/10/29 17:42:18;;;;;;;;;;;;;;;12.67;nan;97023.78;5051704;28;20300;-83
2021/10/29 17:44:46;;;;;;;;;;;;;;;12.45;nan;97025.44;5105910;28;19928;-83
2021/10/29 17:47:13;;;;;;;;;;;;;;;12.62;nan;97030.06;5086256;28;20376;-83
2021/10/29 17:49:40;;;;;;;;;;;;;;;12.60;nan;97029.78;5073852;28;19924;-83
2021/10/29 17:52:09;;;;;;;;;;;;;;;12.60;nan;97031.81;5047068;28;20395;-83
2021/10/29 17:54:39;;;;;;;;;;;;;;;12.96;nan;97047.38;5056549;28;19925;-83